Time;durP1;ratioP1;P1;durP2;ratioP2;P2;SDS_P1;SDS_P2;PMS_P1;PMS_P2;Temp;Humidity;BMP_temperature;BMP_pressure;BME280_temperature;BME280_humidity;BME280_pressure;Samples;Min_cycle;Max_cycle;Signal;HPM_P1;HPM_P2
2020/12/13 00:01:19;;;;;;;;;;;;;;;6.48;97.50;97932.44;5122116;27;19915;-82
2020/12/13 00:03:44;;;;;;;;;;;;;;;6.45;99.09;97937.63;5141519;27;20006;-82
2020/12/13 00:06:10;;;;;;;;;;;;;;;6.16;99.09;97941.97;5122106;27;19912;-83
2020/12/13 00:08:35;;;;;;;;;;;;;;;6.25;100.00;97941.66;5121841;27;19922;-82
2020/12/13 00:11:01;;;;;;;;;;;;;;;6.10;100.00;97952.38;5121765;27;19961;-82
2020/12/13 00:13:26;;;;;;;;;;;;;;;6.10;100.00;97949.81;5122176;27;19911;-82
2020/12/13 00:15:51;;;;;;;;;;;;;;;6.13;100.00;97952.25;5122180;27;20048;-82
2020/12/13 00:18:17;;;;;;;;;;;;;;;6.14;99.33;97948.84;5140036;27;19912;-82
2020/12/13 00:20:42;;;;;;;;;;;;;;;6.18;100.00;97945.31;5122364;27;19964;-83
2020/12/13 00:23:08;;;;;;;;;;;;;;;6.33;97.90;97953.38;5140441;27;19915;-78
2020/12/13 00:25:33;;;;;;;;;;;;;;;6.24;96.50;97959.59;5140180;27;20291;-80
2020/12/13 00:27:58;;;;;;;;;;;;;;;6.35;97.47;97946.50;5120970;27;19911;-79
2020/12/13 00:30:24;;;;;;;;;;;;;;;6.28;100.00;97954.34;5123759;27;20134;-80
2020/12/13 00:32:50;;;;;;;;;;;;;;;6.19;99.45;97964.03;5117760;27;19911;-79
2020/12/13 00:35:15;;;;;;;;;;;;;;;6.28;99.52;97964.56;5138290;27;19960;-80
2020/12/13 00:37:41;;;;;;;;;;;;;;;6.35;99.68;97966.94;5120266;27;19915;-81
2020/12/13 00:40:06;;;;;;;;;;;;;;;6.56;97.84;97971.38;5138341;27;20022;-80
2020/12/13 00:42:31;;;;;;;;;;;;;;;6.58;97.99;97969.59;5120755;27;20380;-81
2020/12/13 00:44:57;;;;;;;;;;;;;;;6.25;98.63;97972.34;5120149;27;20440;-81
2020/12/13 00:47:22;;;;;;;;;;;;;;;6.29;99.44;97970.53;5139207;27;19943;-81
2020/12/13 00:49:48;;;;;;;;;;;;;;;6.30;99.21;97979.06;5120724;27;19951;-81
2020/12/13 00:52:13;;;;;;;;;;;;;;;6.48;98.09;97978.47;5138632;27;20292;-80
2020/12/13 00:54:38;;;;;;;;;;;;;;;6.51;97.72;97978.34;5120210;27;19923;-81
2020/12/13 00:57:04;;;;;;;;;;;;;;;6.38;97.85;97982.19;5120622;27;19998;-81
2020/12/13 00:59:29;;;;;;;;;;;;;;;6.33;98.87;97977.22;5138445;27;19917;-81
2020/12/13 01:01:54;;;;;;;;;;;;;;;6.43;98.79;97980.31;5119726;27;19916;-81
2020/12/13 01:04:20;;;;;;;;;;;;;;;6.59;98.47;97984.06;5139149;27;19947;-82
2020/12/13 01:06:45;;;;;;;;;;;;;;;6.70;99.13;97986.25;5104121;27;20362;-81
2020/12/13 01:09:10;;;;;;;;;;;;;;;6.40;98.19;97998.31;5120635;27;19918;-80
2020/12/13 01:11:36;;;;;;;;;;;;;;;6.41;98.86;97997.41;5120268;27;19912;-81
2020/12/13 01:14:02;;;;;;;;;;;;;;;6.41;97.49;97987.19;5120796;27;20265;-81
2020/12/13 01:16:27;;;;;;;;;;;;;;;6.35;100.00;97995.06;5138754;27;19915;-81
2020/12/13 01:18:53;;;;;;;;;;;;;;;6.26;99.35;97999.56;5120476;27;19922;-82
2020/12/13 01:21:23;;;;;;;;;;;;;;;6.44;100.00;98002.47;5138440;27;19930;-82
2020/12/13 01:23:48;;;;;;;;;;;;;;;6.31;100.00;98004.56;5120673;27;19964;-82
2020/12/13 01:26:14;;;;;;;;;;;;;;;6.61;97.55;98014.72;5103137;27;19930;-82
2020/12/13 01:28:39;;;;;;;;;;;;;;;6.55;98.64;98020.88;5120610;27;20344;-82
2020/12/13 01:31:05;;;;;;;;;;;;;;;6.62;98.93;98012.09;5103473;27;19915;-81
2020/12/13 01:33:30;;;;;;;;;;;;;;;6.61;99.21;98019.81;5119825;27;19918;-81
2020/12/13 01:35:55;;;;;;;;;;;;;;;6.44;97.82;98023.75;5138148;27;19942;-82
2020/12/13 01:38:21;;;;;;;;;;;;;;;6.61;97.92;98020.66;5119456;27;19950;-81
2020/12/13 01:40:46;;;;;;;;;;;;;;;6.52;98.72;98022.66;5138623;27;19912;-82
2020/12/13 01:43:11;;;;;;;;;;;;;;;6.52;98.85;98025.22;5138111;27;19915;-84
2020/12/13 01:45:37;;;;;;;;;;;;;;;6.30;98.91;98025.06;5138461;27;20433;-81
2020/12/13 01:48:02;;;;;;;;;;;;;;;6.51;99.38;98026.13;5137554;27;19962;-82
2020/12/13 01:53:18;;;;;;;;;;;;;;;6.57;97.51;98038.69;5138020;27;19967;-82
2020/12/13 01:55:47;;;;;;;;;;;;;;;6.45;100.00;98045.03;5103990;28;19922;-82
2020/12/13 01:58:13;;;;;;;;;;;;;;;6.64;98.20;98046.16;5120030;28;19918;-81
2020/12/13 02:00:39;;;;;;;;;;;;;;;6.73;96.40;98052.72;5120376;28;19911;-82
2020/12/13 02:03:05;;;;;;;;;;;;;;;6.85;96.79;98054.03;5120248;28;19980;-81
2020/12/13 02:05:30;;;;;;;;;;;;;;;6.60;97.39;98053.97;5119830;28;19911;-82
2020/12/13 02:07:55;;;;;;;;;;;;;;;6.63;97.67;98059.81;5119583;28;19911;-82
2020/12/13 02:10:21;;;;;;;;;;;;;;;6.50;98.17;98053.44;5103561;28;19911;-82
2020/12/13 02:12:47;;;;;;;;;;;;;;;6.56;98.34;98058.34;5119047;28;19919;-81
2020/12/13 02:15:12;;;;;;;;;;;;;;;6.60;97.31;98053.97;5137787;28;20088;-81
2020/12/13 02:17:38;;;;;;;;;;;;;;;6.63;98.40;98057.25;5102894;28;19966;-82
2020/12/13 02:20:10;;;;;;;;;;;;;;;6.66;98.74;98054.63;5103161;28;19968;-81
2020/12/13 02:22:42;;;;;;;;;;;;;;;6.62;96.58;98063.28;5119653;28;19915;-82
2020/12/13 02:25:08;;;;;;;;;;;;;;;6.69;96.91;98062.19;5118928;28;20017;-84
2020/12/13 02:27:33;;;;;;;;;;;;;;;6.65;97.61;98065.72;5117903;28;20366;-83
2020/12/13 02:29:59;;;;;;;;;;;;;;;6.74;97.24;98068.91;5116583;28;19919;-83
2020/12/13 02:32:24;;;;;;;;;;;;;;;6.72;97.35;98068.94;5116683;28;19995;-82
2020/12/13 02:34:49;;;;;;;;;;;;;;;6.67;96.18;98074.19;5116384;28;19911;-83
2020/12/13 02:37:15;;;;;;;;;;;;;;;6.49;96.13;98072.19;5098850;28;20294;-83
2020/12/13 02:39:41;;;;;;;;;;;;;;;6.59;99.86;98076.16;5115869;28;19915;-85
2020/12/13 02:42:06;;;;;;;;;;;;;;;6.62;97.85;98081.19;5115491;28;19922;-84
2020/12/13 02:44:32;;;;;;;;;;;;;;;6.55;97.84;98082.25;5133808;28;19929;-84
2020/12/13 02:46:57;;;;;;;;;;;;;;;6.60;99.59;98079.56;5134796;28;19965;-83
2020/12/13 02:49:22;;;;;;;;;;;;;;;6.51;97.58;98085.78;5116132;28;19919;-84
2020/12/13 02:51:48;;;;;;;;;;;;;;;6.55;99.45;98082.25;5134480;28;19912;-83
2020/12/13 02:54:13;;;;;;;;;;;;;;;6.52;98.29;98087.44;5115984;28;19934;-82
2020/12/13 02:56:39;;;;;;;;;;;;;;;6.76;98.87;98079.91;5138260;27;19935;-84
2020/12/13 02:59:05;;;;;;;;;;;;;;;6.65;98.19;98086.19;5119278;27;19911;-83
2020/12/13 03:01:30;;;;;;;;;;;;;;;6.79;97.78;98084.94;5118086;27;19941;-86
2020/12/13 03:03:55;;;;;;;;;;;;;;;6.69;100.00;98092.06;5102270;27;19922;-83
2020/12/13 03:06:21;;;;;;;;;;;;;;;6.63;98.91;98103.31;5119195;27;19922;-82
2020/12/13 03:08:46;;;;;;;;;;;;;;;6.70;97.58;98107.38;5137438;27;19954;-83
2020/12/13 03:11:11;;;;;;;;;;;;;;;6.75;97.74;98103.81;5136876;27;20006;-82
2020/12/13 03:13:37;;;;;;;;;;;;;;;6.84;96.59;98106.09;5137270;27;19911;-82
2020/12/13 03:16:02;;;;;;;;;;;;;;;6.78;98.01;98103.75;5118420;27;20092;-83
2020/12/13 03:18:27;;;;;;;;;;;;;;;6.77;98.78;98109.72;5101259;27;19977;-83
2020/12/13 03:20:53;;;;;;;;;;;;;;;6.65;96.04;98110.94;5119049;27;19936;-86
2020/12/13 03:23:18;;;;;;;;;;;;;;;6.57;98.42;98118.88;5101682;27;19920;-83
2020/12/13 03:25:44;;;;;;;;;;;;;;;6.59;98.90;98111.13;5137659;27;19923;-83
2020/12/13 03:28:09;;;;;;;;;;;;;;;6.78;98.02;98125.03;5118432;27;19943;-83
2020/12/13 03:30:34;;;;;;;;;;;;;;;6.69;98.86;98118.47;5100489;27;19915;-83
2020/12/13 03:32:59;;;;;;;;;;;;;;;6.75;100.00;98117.47;5100606;27;20332;-83
2020/12/13 03:35:25;;;;;;;;;;;;;;;6.68;99.04;98128.75;5118337;27;19923;-82
2020/12/13 03:37:50;;;;;;;;;;;;;;;6.91;97.09;98136.59;5118383;27;20168;-84
2020/12/13 03:40:15;;;;;;;;;;;;;;;6.97;99.29;98135.53;5118927;27;19911;-83
2020/12/13 03:42:41;;;;;;;;;;;;;;;6.85;97.69;98131.66;5118418;27;20003;-83
2020/12/13 03:45:07;;;;;;;;;;;;;;;6.78;96.30;98137.84;5136165;27;19919;-83
2020/12/13 03:47:32;;;;;;;;;;;;;;;6.76;95.82;98136.22;5118147;27;20396;-83
2020/12/13 03:49:57;;;;;;;;;;;;;;;6.67;96.91;98145.84;5119191;27;19974;-83
2020/12/13 03:52:23;;;;;;;;;;;;;;;6.86;96.01;98146.09;5118132;27;19954;-84
2020/12/13 03:54:48;;;;;;;;;;;;;;;6.86;99.04;98152.94;5118364;27;19915;-84
2020/12/13 03:57:13;;;;;;;;;;;;;;;6.69;98.75;98154.31;5136482;27;19951;-83
2020/12/13 03:59:39;;;;;;;;;;;;;;;6.85;99.88;98153.84;5117916;27;20364;-82
2020/12/13 04:02:04;;;;;;;;;;;;;;;6.82;99.04;98159.03;5135702;27;19915;-83
2020/12/13 04:04:29;;;;;;;;;;;;;;;6.88;99.85;98162.25;5136321;27;19912;-83
2020/12/13 04:06:55;;;;;;;;;;;;;;;6.51;100.00;98167.63;5117079;27;19911;-83
2020/12/13 04:09:20;;;;;;;;;;;;;;;6.46;100.00;98172.06;5100923;27;20337;-83
2020/12/13 04:11:46;;;;;;;;;;;;;;;6.43;100.00;98172.13;5136463;27;19916;-83
2020/12/13 04:14:11;;;;;;;;;;;;;;;6.54;100.00;98167.53;5118077;27;19964;-83
2020/12/13 04:16:38;;;;;;;;;;;;;;;6.47;100.00;98171.16;5117740;27;19911;-83
2020/12/13 04:19:03;;;;;;;;;;;;;;;6.58;100.00;98173.41;5118545;27;19988;-84
2020/12/13 04:21:29;;;;;;;;;;;;;;;6.51;100.00;98167.63;5118031;27;20360;-83
2020/12/13 04:23:54;;;;;;;;;;;;;;;6.53;100.00;98168.44;5136846;27;19918;-83
2020/12/13 04:26:20;;;;;;;;;;;;;;;6.39;100.00;98165.44;5118226;27;19912;-85
2020/12/13 04:28:45;;;;;;;;;;;;;;;6.38;100.00;98177.38;5135966;27;19937;-83
2020/12/13 04:31:11;;;;;;;;;;;;;;;6.47;100.00;98181.38;5136282;27;19916;-84
2020/12/13 04:33:36;;;;;;;;;;;;;;;6.49;100.00;98180.47;5136019;27;19972;-82
2020/12/13 04:36:04;;;;;;;;;;;;;;;6.87;100.00;98181.06;5117841;27;19915;-83
2020/12/13 04:38:29;;;;;;;;;;;;;;;6.78;100.00;98189.00;5098325;27;19918;-83
2020/12/13 04:40:54;;;;;;;;;;;;;;;6.77;100.00;98187.31;5137014;27;19942;-84
2020/12/13 04:43:20;;;;;;;;;;;;;;;6.70;100.00;98179.03;5135568;27;19972;-82
2020/12/13 04:45:45;;;;;;;;;;;;;;;6.73;100.00;98188.31;5117140;27;19951;-83
2020/12/13 04:48:10;;;;;;;;;;;;;;;6.72;100.00;98196.03;5116881;27;19915;-83
2020/12/13 04:50:37;;;;;;;;;;;;;;;6.76;100.00;98197.63;5117157;27;19915;-82
2020/12/13 04:53:06;;;;;;;;;;;;;;;6.91;100.00;98198.00;5099484;27;19911;-83
2020/12/13 04:55:34;;;;;;;;;;;;;;;6.65;100.00;98198.75;5100330;27;19911;-83
2020/12/13 04:58:00;;;;;;;;;;;;;;;6.66;100.00;98202.16;5116341;27;19933;-83
2020/12/13 05:00:25;;;;;;;;;;;;;;;6.63;100.00;98208.19;5135618;27;19955;-83
2020/12/13 05:02:53;;;;;;;;;;;;;;;6.79;100.00;98195.78;5116825;27;19919;-84
2020/12/13 05:05:19;;;;;;;;;;;;;;;6.64;100.00;98207.34;5098280;27;19915;-84
2020/12/13 05:07:46;;;;;;;;;;;;;;;6.64;100.00;98209.91;5115519;27;20209;-82
2020/12/13 05:10:11;;;;;;;;;;;;;;;6.65;100.00;98203.88;5099602;27;20426;-82
2020/12/13 05:12:36;;;;;;;;;;;;;;;6.47;100.00;98206.97;5116837;27;19915;-82
2020/12/13 05:15:03;;;;;;;;;;;;;;;6.44;100.00;98212.19;5116320;27;19925;-82
2020/12/13 05:17:28;;;;;;;;;;;;;;;6.49;100.00;98215.44;5115548;27;19916;-84
2020/12/13 05:19:53;;;;;;;;;;;;;;;6.55;100.00;98220.38;5116322;27;20943;-83
2020/12/13 05:22:20;;;;;;;;;;;;;;;6.41;100.00;98219.91;5135312;27;19927;-83
2020/12/13 05:24:45;;;;;;;;;;;;;;;6.62;100.00;98224.44;5116418;27;19951;-81
2020/12/13 05:27:10;;;;;;;;;;;;;;;6.56;100.00;98216.94;5099479;27;19937;-84
2020/12/13 05:29:38;;;;;;;;;;;;;;;6.60;100.00;98220.25;5116420;27;19912;-82
2020/12/13 05:32:09;;;;;;;;;;;;;;;6.60;100.00;98226.19;5099797;27;20480;-83
2020/12/13 05:34:37;;;;;;;;;;;;;;;6.52;100.00;98228.13;5135484;27;19942;-82
2020/12/13 05:37:04;;;;;;;;;;;;;;;6.42;100.00;98234.41;5098596;28;19915;-83
2020/12/13 05:39:32;;;;;;;;;;;;;;;6.58;100.00;98240.75;5098917;27;19911;-83
2020/12/13 05:41:58;;;;;;;;;;;;;;;6.51;100.00;98243.53;5135951;27;19965;-83
2020/12/13 05:50:03;;;;;;;;;;;;;;;6.32;100.00;98241.50;5120124;28;19915;-83
2020/12/13 05:52:28;;;;;;;;;;;;;;;6.33;100.00;98250.00;5127402;27;19937;-80
2020/12/13 05:54:54;;;;;;;;;;;;;;;6.34;100.00;98246.53;5117548;27;19912;-80
2020/12/13 05:57:19;;;;;;;;;;;;;;;6.28;100.00;98256.06;5117567;28;19912;-80
2020/12/13 05:59:44;;;;;;;;;;;;;;;6.25;100.00;98256.16;5115958;28;19951;-84
2020/12/13 06:02:10;;;;;;;;;;;;;;;6.25;100.00;98268.09;5116126;28;20006;-82
2020/12/13 06:04:35;;;;;;;;;;;;;;;6.28;100.00;98263.72;5116198;28;19915;-82
2020/12/13 06:07:04;;;;;;;;;;;;;;;6.22;100.00;98269.00;5098373;28;19915;-82
2020/12/13 06:09:33;;;;;;;;;;;;;;;6.20;100.00;98270.78;5116153;28;19911;-82
2020/12/13 06:12:02;;;;;;;;;;;;;;;6.18;100.00;98267.44;5115524;28;20403;-82
2020/12/13 06:14:28;;;;;;;;;;;;;;;6.24;100.00;98272.34;5115632;28;19912;-82
2020/12/13 06:16:53;;;;;;;;;;;;;;;6.18;100.00;98277.66;5115920;28;19968;-84
2020/12/13 06:19:21;;;;;;;;;;;;;;;6.19;100.00;98279.31;5115698;28;19911;-82
2020/12/13 06:21:46;;;;;;;;;;;;;;;6.21;100.00;98277.56;5115309;28;20006;-82
2020/12/13 06:24:12;;;;;;;;;;;;;;;6.27;100.00;98282.53;5115097;28;19970;-82
2020/12/13 06:26:37;;;;;;;;;;;;;;;6.20;100.00;98286.13;5116451;28;19915;-81
2020/12/13 06:29:04;;;;;;;;;;;;;;;6.19;100.00;98284.44;5098612;28;19915;-83
2020/12/13 06:31:30;;;;;;;;;;;;;;;6.23;100.00;98291.16;5119213;27;19985;-83
2020/12/13 06:33:55;;;;;;;;;;;;;;;6.24;100.00;98290.25;5119919;27;20376;-82
2020/12/13 06:36:21;;;;;;;;;;;;;;;6.23;100.00;98300.53;5138443;27;20002;-80
2020/12/13 06:38:47;;;;;;;;;;;;;;;6.28;100.00;98299.53;5138410;27;19918;-82
2020/12/13 06:41:13;;;;;;;;;;;;;;;6.24;100.00;98303.03;5102475;27;19915;-82
2020/12/13 06:43:53;;;;;;;;;;;;;;;6.24;100.00;98303.03;5119571;27;20464;-82
2020/12/13 06:46:19;;;;;;;;;;;;;;;6.18;100.00;98307.47;5137540;27;19972;-82
2020/12/13 06:48:45;;;;;;;;;;;;;;;6.15;100.00;98307.56;5119823;27;19915;-82
2020/12/13 06:51:10;;;;;;;;;;;;;;;6.27;100.00;98307.22;5102245;27;19911;-83
2020/12/13 06:53:36;;;;;;;;;;;;;;;6.32;100.00;98309.66;5118523;27;19911;-84
2020/12/13 06:56:11;;;;;;;;;;;;;;;6.31;100.00;98318.22;5119583;27;19976;-83
2020/12/13 06:58:40;;;;;;;;;;;;;;;6.37;100.00;98318.09;5118824;27;19922;-82
2020/12/13 07:01:16;;;;;;;;;;;;;;;6.38;100.00;98317.19;5119500;27;20043;-83
2020/12/13 07:03:41;;;;;;;;;;;;;;;6.40;100.00;98323.09;5137507;27;19916;-82
2020/12/13 07:06:08;;;;;;;;;;;;;;;6.42;100.00;98323.91;5102010;27;19911;-81
2020/12/13 07:08:34;;;;;;;;;;;;;;;6.32;100.00;98325.00;5101934;27;19998;-82
2020/12/13 07:10:59;;;;;;;;;;;;;;;6.39;100.00;98331.69;5118623;27;19949;-84
2020/12/13 07:13:26;;;;;;;;;;;;;;;6.43;100.00;98333.25;5136987;27;19969;-82
2020/12/13 07:15:55;;;;;;;;;;;;;;;6.54;100.00;98338.09;5118965;27;19926;-82
2020/12/13 07:18:20;;;;;;;;;;;;;;;6.45;100.00;98341.72;5137108;27;19967;-81
2020/12/13 07:20:46;;;;;;;;;;;;;;;6.42;100.00;98340.09;5119750;27;19911;-81
2020/12/13 07:23:11;;;;;;;;;;;;;;;6.30;100.00;98337.84;5119308;27;19938;-82
2020/12/13 07:25:37;;;;;;;;;;;;;;;6.28;100.00;98342.16;5118509;27;19911;-82
2020/12/13 07:28:02;;;;;;;;;;;;;;;6.33;100.00;98347.16;5118791;27;19911;-82
2020/12/13 07:30:28;;;;;;;;;;;;;;;6.30;100.00;98342.97;5117891;27;19923;-83
2020/12/13 07:32:53;;;;;;;;;;;;;;;6.30;100.00;98352.38;5118370;27;19927;-82
2020/12/13 07:35:20;;;;;;;;;;;;;;;6.33;100.00;98349.72;5118624;27;19945;-82
2020/12/13 07:37:45;;;;;;;;;;;;;;;6.36;100.00;98352.19;5118284;27;20440;-82
2020/12/13 07:40:11;;;;;;;;;;;;;;;6.38;100.00;98356.38;5118344;27;19915;-81
2020/12/13 07:42:36;;;;;;;;;;;;;;;6.39;100.00;98357.25;5136120;27;19915;-80
2020/12/13 07:45:02;;;;;;;;;;;;;;;6.42;100.00;98368.22;5117827;27;20980;-82
2020/12/13 07:47:27;;;;;;;;;;;;;;;6.46;100.00;98369.00;5118079;27;19951;-82
2020/12/13 07:49:52;;;;;;;;;;;;;;;6.41;100.00;98375.91;5118468;27;19930;-81
2020/12/13 07:52:18;;;;;;;;;;;;;;;6.48;100.00;98372.34;5118072;27;19915;-82
2020/12/13 07:54:43;;;;;;;;;;;;;;;6.62;100.00;98375.38;5100599;27;20494;-81
2020/12/13 07:57:16;;;;;;;;;;;;;;;6.63;100.00;98371.94;5101265;27;19931;-82
2020/12/13 07:59:41;;;;;;;;;;;;;;;6.69;100.00;98381.19;5119499;27;19912;-81
2020/12/13 08:02:08;;;;;;;;;;;;;;;6.58;100.00;98383.19;5101189;27;19930;-81
2020/12/13 08:04:34;;;;;;;;;;;;;;;6.79;100.00;98386.91;5135975;27;19919;-80
2020/12/13 08:07:03;;;;;;;;;;;;;;;6.62;100.00;98380.50;5118002;27;19915;-81
2020/12/13 08:09:29;;;;;;;;;;;;;;;6.68;100.00;98387.16;5118406;27;19912;-81
2020/12/13 08:11:54;;;;;;;;;;;;;;;6.69;100.00;98391.41;5118951;27;19916;-82
2020/12/13 08:14:20;;;;;;;;;;;;;;;6.76;100.00;98392.09;5119557;27;19911;-81
2020/12/13 08:16:48;;;;;;;;;;;;;;;6.71;100.00;98389.66;5119224;27;19915;-81
2020/12/13 08:19:16;;;;;;;;;;;;;;;6.84;100.00;98397.84;5119873;27;19966;-80
2020/12/13 08:21:45;;;;;;;;;;;;;;;6.73;100.00;98397.28;5119333;27;19919;-81
2020/12/13 08:24:11;;;;;;;;;;;;;;;6.62;100.00;98406.09;5136767;27;19919;-80
2020/12/13 08:26:37;;;;;;;;;;;;;;;6.79;100.00;98407.38;5117805;27;19916;-81
2020/12/13 08:29:02;;;;;;;;;;;;;;;7.00;100.00;98411.94;5119265;27;19915;-81
2020/12/13 08:31:31;;;;;;;;;;;;;;;6.78;100.00;98415.94;5118221;27;19919;-81
2020/12/13 08:34:03;;;;;;;;;;;;;;;6.86;100.00;98411.44;5123928;27;20013;-82
2020/12/13 08:36:28;;;;;;;;;;;;;;;6.74;100.00;98416.88;5101652;27;19964;-82
2020/12/13 08:39:02;;;;;;;;;;;;;;;6.86;100.00;98425.06;5118670;27;19915;-81
2020/12/13 08:41:27;;;;;;;;;;;;;;;6.81;100.00;98416.69;5116353;27;19911;-80
2020/12/13 08:43:52;;;;;;;;;;;;;;;6.70;100.00;98419.53;5116606;27;19926;-82
2020/12/13 08:46:26;;;;;;;;;;;;;;;6.59;100.00;98421.53;5116700;27;20292;-82
2020/12/13 08:48:51;;;;;;;;;;;;;;;6.62;100.00;98429.13;5117104;27;19915;-83
2020/12/13 08:51:16;;;;;;;;;;;;;;;6.76;100.00;98427.94;5115866;27;20389;-83
2020/12/13 08:53:41;;;;;;;;;;;;;;;6.87;100.00;98431.06;5133738;27;20364;-84
2020/12/13 08:56:12;;;;;;;;;;;;;;;6.80;100.00;98439.78;5115323;27;19983;-82
2020/12/13 08:58:51;;;;;;;;;;;;;;;6.89;100.00;98442.94;5115496;27;19915;-82
2020/12/13 09:01:18;;;;;;;;;;;;;;;7.05;100.00;98438.25;5115673;27;19916;-82
2020/12/13 09:03:43;;;;;;;;;;;;;;;7.06;100.00;98446.75;5115189;27;19986;-83
2020/12/13 09:06:08;;;;;;;;;;;;;;;6.89;100.00;98449.78;5115063;27;20013;-83
2020/12/13 09:08:34;;;;;;;;;;;;;;;6.78;100.00;98455.16;5115592;27;19926;-82
2020/12/13 09:11:04;;;;;;;;;;;;;;;6.93;100.00;98451.34;5115821;27;19926;-83
2020/12/13 09:13:31;;;;;;;;;;;;;;;7.16;100.00;98467.81;5116390;27;20123;-82
2020/12/13 09:15:56;;;;;;;;;;;;;;;6.90;100.00;98466.78;5098524;27;19948;-83
2020/12/13 09:18:21;;;;;;;;;;;;;;;7.00;100.00;98473.38;5115335;27;19911;-83
2020/12/13 09:20:54;;;;;;;;;;;;;;;7.10;100.00;98474.78;5135195;27;20014;-82
2020/12/13 09:23:19;;;;;;;;;;;;;;;6.90;100.00;98471.91;5117085;27;19923;-83
2020/12/13 09:25:45;;;;;;;;;;;;;;;7.04;100.00;98480.06;5117494;27;19911;-83
2020/12/13 09:28:11;;;;;;;;;;;;;;;6.91;100.00;98483.81;5116346;27;19912;-83
2020/12/13 09:30:37;;;;;;;;;;;;;;;6.98;100.00;98487.94;5115579;27;20380;-83
2020/12/13 09:33:03;;;;;;;;;;;;;;;7.04;100.00;98497.16;5114467;27;19998;-83
2020/12/13 09:35:30;;;;;;;;;;;;;;;6.99;100.00;98497.28;5115827;27;19973;-82
2020/12/13 09:37:56;;;;;;;;;;;;;;;7.16;100.00;98491.75;5115535;27;19926;-82
2020/12/13 09:40:21;;;;;;;;;;;;;;;7.05;100.00;98492.00;5115450;27;20478;-81
2020/12/13 09:42:47;;;;;;;;;;;;;;;7.03;100.00;98501.44;5133435;27;19920;-81
2020/12/13 09:45:12;;;;;;;;;;;;;;;6.91;100.00;98500.03;5113937;27;20561;-83
2020/12/13 09:47:37;;;;;;;;;;;;;;;6.91;100.00;98502.59;5133014;27;20388;-80
2020/12/13 09:50:03;;;;;;;;;;;;;;;7.05;100.00;98498.84;5117484;27;19915;-81
2020/12/13 09:52:28;;;;;;;;;;;;;;;7.15;100.00;98497.72;5089318;27;19947;-81
2020/12/13 09:54:54;;;;;;;;;;;;;;;7.27;100.00;98504.22;5108727;28;19930;-81
2020/12/13 09:57:20;;;;;;;;;;;;;;;7.39;100.00;98509.06;5129235;27;19916;-82
2020/12/13 09:59:46;;;;;;;;;;;;;;;7.17;100.00;98507.94;5110882;28;19972;-84
2020/12/13 10:02:11;;;;;;;;;;;;;;;7.21;100.00;98510.38;5110924;28;19920;-81
2020/12/13 10:04:37;;;;;;;;;;;;;;;7.28;100.00;98514.44;5134737;27;20284;-81
2020/12/13 10:09:34;;;;;;;;;;;;;;;7.19;100.00;98508.75;5124404;27;19916;-81
2020/12/13 10:11:59;;;;;;;;;;;;;;;7.21;100.00;98517.22;5141153;27;19922;-79
2020/12/13 10:14:25;;;;;;;;;;;;;;;7.40;100.00;98518.41;5115217;27;20299;-80
2020/12/13 10:16:51;;;;;;;;;;;;;;;7.31;100.00;98523.78;5123673;27;19918;-80
2020/12/13 10:19:17;;;;;;;;;;;;;;;7.19;100.00;98524.09;5140255;27;19915;-80
2020/12/13 10:21:42;;;;;;;;;;;;;;;7.16;100.00;98522.47;5131854;27;19920;-81
2020/12/13 10:24:07;;;;;;;;;;;;;;;7.16;100.00;98527.59;5120099;27;19937;-81
2020/12/13 10:26:36;;;;;;;;;;;;;;;7.37;100.00;98523.63;5139502;27;19937;-81
2020/12/13 10:29:02;;;;;;;;;;;;;;;7.26;100.00;98518.78;5121734;27;20430;-80
2020/12/13 10:31:28;;;;;;;;;;;;;;;7.32;100.00;98517.75;5099906;27;19912;-80
2020/12/13 10:33:53;;;;;;;;;;;;;;;7.47;100.00;98513.94;5121246;27;19916;-80
2020/12/13 10:36:18;;;;;;;;;;;;;;;7.49;100.00;98515.59;5123193;27;19955;-81
2020/12/13 10:38:44;;;;;;;;;;;;;;;7.30;100.00;98517.81;5140362;27;19911;-81
2020/12/13 10:41:09;;;;;;;;;;;;;;;7.32;100.00;98515.19;5101541;27;20279;-80
2020/12/13 10:43:35;;;;;;;;;;;;;;;7.20;100.00;98525.78;5116261;28;19915;-80
2020/12/13 10:46:04;;;;;;;;;;;;;;;7.32;100.00;98517.75;5123795;27;19926;-81
2020/12/13 10:48:29;;;;;;;;;;;;;;;7.04;100.00;98517.63;5123771;27;19994;-80
2020/12/13 10:50:55;;;;;;;;;;;;;;;6.94;100.00;98519.59;5124967;27;19990;-81
2020/12/13 10:53:20;;;;;;;;;;;;;;;7.08;100.00;98521.81;5105957;27;19923;-81
2020/12/13 10:55:45;;;;;;;;;;;;;;;7.08;100.00;98527.75;5121547;27;19947;-80
2020/12/13 10:58:11;;;;;;;;;;;;;;;6.93;100.00;98522.19;5120564;27;19915;-80
2020/12/13 11:00:36;;;;;;;;;;;;;;;7.05;100.00;98527.03;5117552;27;19915;-80
2020/12/13 11:03:01;;;;;;;;;;;;;;;7.26;100.00;98526.44;5137179;27;20032;-81
2020/12/13 11:05:27;;;;;;;;;;;;;;;6.87;100.00;98529.16;5118550;27;20584;-80
2020/12/13 11:07:52;;;;;;;;;;;;;;;6.80;100.00;98526.78;5101922;27;19915;-81
2020/12/13 11:10:18;;;;;;;;;;;;;;;6.72;100.00;98534.63;5118493;27;19935;-79
2020/12/13 11:12:43;;;;;;;;;;;;;;;6.83;100.00;98532.66;5121282;27;19926;-79
2020/12/13 11:15:08;;;;;;;;;;;;;;;7.03;100.00;98528.78;5138156;27;19911;-78
2020/12/13 11:17:35;;;;;;;;;;;;;;;7.06;100.00;98534.63;5116816;27;19911;-79
2020/12/13 11:20:00;;;;;;;;;;;;;;;7.12;100.00;98528.53;5115381;27;19915;-79
2020/12/13 11:22:26;;;;;;;;;;;;;;;6.86;100.00;98535.13;5136034;27;20592;-79
2020/12/13 11:24:52;;;;;;;;;;;;;;;6.78;100.00;98523.41;5134750;27;19962;-80
2020/12/13 11:27:17;;;;;;;;;;;;;;;6.92;100.00;98534.16;5131358;27;19916;-79
2020/12/13 11:29:43;;;;;;;;;;;;;;;6.84;100.00;98533.50;5115346;27;19931;-80
2020/12/13 11:32:08;;;;;;;;;;;;;;;6.97;100.00;98534.88;5132136;27;20216;-80
2020/12/13 11:34:33;;;;;;;;;;;;;;;6.86;100.00;98534.28;5116097;27;19916;-79
2020/12/13 11:37:02;;;;;;;;;;;;;;;6.64;100.00;98537.38;5131849;27;19919;-79
2020/12/13 11:39:27;;;;;;;;;;;;;;;6.82;100.00;98535.25;5113086;27;20347;-80
2020/12/13 11:41:55;;;;;;;;;;;;;;;6.91;100.00;98543.56;5128846;27;20064;-78
2020/12/13 11:44:21;;;;;;;;;;;;;;;6.75;100.00;98543.94;5112444;27;19924;-79
2020/12/13 11:46:47;;;;;;;;;;;;;;;6.73;100.00;98540.59;5132117;27;19951;-78
2020/12/13 11:49:12;;;;;;;;;;;;;;;6.70;100.00;98544.06;5131109;27;20600;-78
2020/12/13 11:51:38;;;;;;;;;;;;;;;6.63;100.00;98548.47;5112612;27;19916;-79
2020/12/13 11:54:04;;;;;;;;;;;;;;;6.79;100.00;98545.56;5089447;27;19922;-78
2020/12/13 11:56:29;;;;;;;;;;;;;;;6.75;100.00;98544.81;5129095;27;20376;-78
2020/12/13 11:58:54;;;;;;;;;;;;;;;6.86;100.00;98549.66;5132233;27;19968;-79
2020/12/13 12:01:20;;;;;;;;;;;;;;;7.15;100.00;98540.41;5131802;27;19923;-78
2020/12/13 12:03:46;;;;;;;;;;;;;;;6.85;100.00;98545.44;5115246;27;19911;-79
2020/12/13 12:06:14;;;;;;;;;;;;;;;7.02;100.00;98550.94;5132776;27;19946;-79
2020/12/13 12:08:41;;;;;;;;;;;;;;;7.03;100.00;98550.09;5131494;27;19955;-78
2020/12/13 12:11:06;;;;;;;;;;;;;;;6.95;100.00;98546.88;5132396;27;20007;-78
2020/12/13 12:13:31;;;;;;;;;;;;;;;6.70;100.00;98544.06;5113409;27;19912;-79
2020/12/13 12:15:57;;;;;;;;;;;;;;;6.70;100.00;98547.47;5131225;27;19915;-79
2020/12/13 12:18:22;;;;;;;;;;;;;;;6.84;100.00;98549.72;5133419;27;19915;-79
2020/12/13 12:20:47;;;;;;;;;;;;;;;6.80;100.00;98552.38;5113489;27;20026;-78
2020/12/13 12:23:13;;;;;;;;;;;;;;;6.95;100.00;98552.00;5112644;27;19924;-80
2020/12/13 12:25:38;;;;;;;;;;;;;;;7.01;100.00;98546.72;5131642;27;19959;-79
2020/12/13 12:28:04;;;;;;;;;;;;;;;6.86;100.00;98547.94;5112717;27;19920;-79
2020/12/13 12:30:29;;;;;;;;;;;;;;;6.73;100.00;98553.38;5132393;27;19912;-78
2020/12/13 12:32:54;;;;;;;;;;;;;;;6.90;99.95;98553.81;5112949;27;19973;-80
2020/12/13 12:35:19;;;;;;;;;;;;;;;6.96;100.00;98551.13;5113933;27;19916;-80
2020/12/13 12:37:45;;;;;;;;;;;;;;;7.10;99.79;98551.63;5131065;27;19918;-80
2020/12/13 12:40:10;;;;;;;;;;;;;;;7.40;98.54;98548.31;5133034;27;19919;-79
2020/12/13 12:42:35;;;;;;;;;;;;;;;7.26;98.88;98552.06;5115063;27;20417;-78
2020/12/13 12:45:02;;;;;;;;;;;;;;;7.38;98.72;98552.63;5133593;27;20018;-79
2020/12/13 12:47:27;;;;;;;;;;;;;;;7.29;98.56;98546.84;5133014;27;20004;-78
2020/12/13 12:49:52;;;;;;;;;;;;;;;7.33;98.10;98552.75;5114915;27;19919;-79
2020/12/13 12:52:18;;;;;;;;;;;;;;;7.52;97.91;98559.06;5132499;27;20523;-79
2020/12/13 12:54:43;;;;;;;;;;;;;;;7.54;96.89;98557.28;5131089;27;19915;-80